Time;durP1;ratioP1;P1;durP2;ratioP2;P2;SDS_P1;SDS_P2;PMS_P1;PMS_P2;Temp;Humidity;BMP_temperature;BMP_pressure;BME280_temperature;BME280_humidity;BME280_pressure;Samples;Min_cycle;Max_cycle;Signal;HPM_P1;HPM_P2
2022/03/20 00:01:02;;;;;;;25.98;12.98;;;;;;;;;;5096186;28;20520;-70
2022/03/20 00:03:28;;;;;;;29.70;13.02;;;;;;;;;;5077898;28;20028;-68
2022/03/20 00:05:55;;;;;;;27.48;13.27;;;;;;;;;;5077865;28;20031;-68
2022/03/20 00:08:21;;;;;;;28.05;13.35;;;;;;;;;;5095981;28;20059;-66
2022/03/20 00:10:48;;;;;;;30.63;13.55;;;;;;;;;;5095989;28;20028;-69
2022/03/20 00:13:16;;;;;;;29.88;12.18;;;;;;;;;;5095883;28;20071;-68
2022/03/20 00:15:43;;;;;;;35.50;14.57;;;;;;;;;;5094585;28;20024;-68
2022/03/20 00:18:12;;;;;;;31.38;13.10;;;;;;;;;;5095085;28;20449;-67
2022/03/20 00:20:39;;;;;;;28.65;14.80;;;;;;;;;;5094959;28;20092;-67
2022/03/20 00:23:07;;;;;;;33.13;13.52;;;;;;;;;;5095721;28;20058;-69
2022/03/20 00:25:38;;;;;;;36.50;14.45;;;;;;;;;;5077488;28;20449;-67
2022/03/20 00:28:07;;;;;;;28.52;13.68;;;;;;;;;;5095585;28;20056;-67
2022/03/20 00:30:33;;;;;;;28.70;12.90;;;;;;;;;;5095612;28;20016;-67
2022/03/20 00:32:59;;;;;;;28.13;13.70;;;;;;;;;;5077416;28;20473;-67
2022/03/20 00:35:26;;;;;;;29.50;13.77;;;;;;;;;;5077018;28;20028;-67
2022/03/20 00:37:52;;;;;;;55.55;22.38;;;;;;;;;;5095426;28;20472;-67
2022/03/20 00:40:18;;;;;;;59.10;23.95;;;;;;;;;;5095364;28;20027;-68
2022/03/20 00:42:44;;;;;;;64.95;24.70;;;;;;;;;;5095071;28;20092;-68
2022/03/20 00:45:11;;;;;;;72.88;31.63;;;;;;;;;;5094931;28;20388;-67
2022/03/20 00:47:37;;;;;;;96.78;39.63;;;;;;;;;;5095257;28;20059;-70
2022/03/20 00:50:04;;;;;;;92.65;43.20;;;;;;;;;;5077074;28;20027;-68
2022/03/20 00:52:32;;;;;;;87.40;38.03;;;;;;;;;;5076919;28;20545;-69
2022/03/20 00:54:58;;;;;;;95.13;40.78;;;;;;;;;;5095004;28;20031;-68
2022/03/20 00:57:25;;;;;;;121.25;53.63;;;;;;;;;;5094438;28;20421;-68
2022/03/20 00:59:51;;;;;;;126.88;57.85;;;;;;;;;;5076908;28;20024;-70
2022/03/20 01:02:17;;;;;;;146.95;64.22;;;;;;;;;;5094915;28;20135;-68
2022/03/20 01:04:43;;;;;;;120.93;53.13;;;;;;;;;;5094884;28;20024;-69
2022/03/20 01:07:10;;;;;;;117.78;54.55;;;;;;;;;;5094852;28;20024;-70
2022/03/20 01:09:36;;;;;;;136.93;57.72;;;;;;;;;;5094839;28;20082;-68
2022/03/20 01:12:03;;;;;;;118.97;50.83;;;;;;;;;;5094737;28;20036;-68
2022/03/20 01:14:30;;;;;;;103.28;49.33;;;;;;;;;;5094731;28;20020;-68
2022/03/20 01:16:56;;;;;;;101.13;45.90;;;;;;;;;;5094640;28;20465;-67
2022/03/20 01:19:25;;;;;;;93.88;40.08;;;;;;;;;;5094625;28;20086;-69
2022/03/20 01:21:52;;;;;;;97.10;44.53;;;;;;;;;;5094449;28;20472;-69
2022/03/20 01:24:19;;;;;;;98.07;45.90;;;;;;;;;;5094534;28;20024;-68
2022/03/20 01:26:45;;;;;;;90.35;44.13;;;;;;;;;;5094453;28;20020;-68
2022/03/20 01:29:12;;;;;;;106.30;48.63;;;;;;;;;;5094462;28;20020;-69
2022/03/20 01:31:40;;;;;;;91.40;42.25;;;;;;;;;;5076210;28;20036;-67
2022/03/20 01:34:06;;;;;;;111.05;47.22;;;;;;;;;;5076110;28;20119;-67
2022/03/20 01:36:33;;;;;;;93.22;44.72;;;;;;;;;;5076053;28;20455;-67
2022/03/20 01:38:59;;;;;;;82.95;39.63;;;;;;;;;;5076014;28;20020;-67
2022/03/20 01:41:25;;;;;;;94.18;40.17;;;;;;;;;;5094216;28;20032;-67
2022/03/20 01:43:52;;;;;;;51.85;22.67;;;;;;;;;;5075504;28;20052;-68
2022/03/20 01:46:19;;;;;;;33.55;16.35;;;;;;;;;;5075908;28;20456;-67
2022/03/20 01:48:45;;;;;;;26.70;14.68;;;;;;;;;;5075816;28;20024;-69
2022/03/20 01:51:12;;;;;;;22.73;10.52;;;;;;;;;;5094049;28;20089;-68
2022/03/20 01:53:38;;;;;;;19.30;10.73;;;;;;;;;;5093993;28;20032;-69
2022/03/20 01:56:04;;;;;;;15.93;9.00;;;;;;;;;;5093932;28;20519;-68
2022/03/20 01:58:32;;;;;;;16.83;9.32;;;;;;;;;;5093881;28;20080;-69
2022/03/20 02:00:58;;;;;;;16.50;9.48;;;;;;;;;;5093784;28;20109;-70
2022/03/20 02:03:24;;;;;;;24.42;10.35;;;;;;;;;;5075572;28;20024;-69
2022/03/20 02:05:52;;;;;;;18.67;9.10;;;;;;;;;;5075515;28;20024;-70
2022/03/20 02:08:25;;;;;;;16.15;9.05;;;;;;;;;;5092960;28;20096;-70
2022/03/20 02:10:52;;;;;;;14.48;8.55;;;;;;;;;;5075501;28;20128;-69
2022/03/20 02:13:21;;;;;;;18.55;9.40;;;;;;;;;;5075432;28;20122;-69
2022/03/20 02:15:48;;;;;;;17.33;9.13;;;;;;;;;;5093615;28;20511;-70
2022/03/20 02:18:14;;;;;;;18.25;8.95;;;;;;;;;;5093549;28;20153;-69
2022/03/20 02:20:41;;;;;;;18.52;9.70;;;;;;;;;;5093498;28;20028;-69
2022/03/20 02:23:07;;;;;;;20.20;11.77;;;;;;;;;;5093498;28;20046;-69
2022/03/20 02:25:34;;;;;;;18.52;9.27;;;;;;;;;;5075284;28;20396;-69
2022/03/20 02:28:00;;;;;;;18.65;9.85;;;;;;;;;;5093088;28;20426;-68
2022/03/20 02:30:30;;;;;;;42.78;19.85;;;;;;;;;;5093422;28;20131;-69
2022/03/20 02:32:56;;;;;;;69.75;30.45;;;;;;;;;;5093426;28;20492;-69
2022/03/20 02:35:22;;;;;;;101.28;44.35;;;;;;;;;;5093015;28;20484;-68
2022/03/20 02:37:50;;;;;;;108.57;47.72;;;;;;;;;;5093284;28;20027;-68
2022/03/20 02:40:19;;;;;;;109.47;47.42;;;;;;;;;;5093300;28;20116;-67
2022/03/20 02:42:46;;;;;;;124.13;57.05;;;;;;;;;;5093056;28;20059;-68
2022/03/20 02:45:14;;;;;;;139.77;58.30;;;;;;;;;;5093192;28;20016;-66
2022/03/20 02:47:42;;;;;;;110.32;51.17;;;;;;;;;;5093465;28;20380;-66
2022/03/20 02:50:13;;;;;;;125.65;53.35;;;;;;;;;;5075134;28;20107;-66
2022/03/20 02:52:42;;;;;;;134.53;56.23;;;;;;;;;;5092873;28;20479;-66
2022/03/20 02:55:09;;;;;;;154.40;68.60;;;;;;;;;;5093123;28;20158;-66
2022/03/20 02:57:35;;;;;;;120.90;53.97;;;;;;;;;;5093136;28;20035;-67
2022/03/20 03:00:04;;;;;;;115.80;48.13;;;;;;;;;;5093312;28;20032;-68
2022/03/20 03:02:31;;;;;;;93.03;38.78;;;;;;;;;;5074854;28;20087;-66
2022/03/20 03:04:59;;;;;;;33.17;17.42;;;;;;;;;;5093003;28;20024;-67
2022/03/20 03:07:26;;;;;;;23.23;12.25;;;;;;;;;;5093047;28;20396;-68
2022/03/20 03:12:37;;;;;;;24.80;12.88;;;;;;;;;;5092798;28;20403;-68
2022/03/20 03:15:19;;;;;;;31.67;13.77;;;;;;;;;;5092930;28;20102;-67
2022/03/20 03:17:46;;;;;;;21.00;11.27;;;;;;;;;;5093017;28;20092;-67
2022/03/20 03:20:12;;;;;;;25.80;13.15;;;;;;;;;;5077971;28;20127;-68
2022/03/20 03:22:38;;;;;;;33.40;15.55;;;;;;;;;;5078762;28;20016;-67
2022/03/20 03:25:08;;;;;;;27.15;12.60;;;;;;;;;;5096868;28;20055;-68
2022/03/20 03:27:34;;;;;;;21.25;9.93;;;;;;;;;;5096786;28;20016;-67
2022/03/20 03:30:00;;;;;;;16.55;8.50;;;;;;;;;;5096761;28;20052;-69
2022/03/20 03:32:26;;;;;;;13.85;7.50;;;;;;;;;;5096785;28;20035;-69
2022/03/20 03:37:37;;;;;;;14.00;8.23;;;;;;;;;;5096662;28;20515;-68
2022/03/20 03:40:04;;;;;;;19.73;8.63;;;;;;;;;;5096791;28;20472;-70
2022/03/20 03:42:31;;;;;;;17.98;9.73;;;;;;;;;;5078096;28;20070;-70
2022/03/20 03:44:57;;;;;;;25.48;13.27;;;;;;;;;;5096547;28;20020;-66
2022/03/20 03:47:24;;;;;;;24.77;13.02;;;;;;;;;;5096457;28;20428;-67
2022/03/20 03:49:51;;;;;;;24.33;10.43;;;;;;;;;;5096365;28;20028;-67
2022/03/20 03:52:17;;;;;;;13.77;7.80;;;;;;;;;;5078157;28;20032;-66
2022/03/20 03:54:44;;;;;;;13.27;6.75;;;;;;;;;;5078079;28;20081;-68
2022/03/20 03:57:10;;;;;;;14.80;7.28;;;;;;;;;;5096253;28;20115;-68
2022/03/20 03:59:36;;;;;;;13.05;7.47;;;;;;;;;;5096201;28;20026;-65
2022/03/20 04:02:02;;;;;;;13.43;7.50;;;;;;;;;;5077877;28;20035;-65
2022/03/20 04:04:29;;;;;;;15.13;7.53;;;;;;;;;;5096114;28;20118;-65
2022/03/20 04:06:56;;;;;;;12.05;6.95;;;;;;;;;;5077800;28;20822;-65
2022/03/20 04:09:22;;;;;;;13.30;7.80;;;;;;;;;;5077818;28;20073;-65
2022/03/20 04:11:48;;;;;;;13.27;7.03;;;;;;;;;;5096006;28;20156;-70
2022/03/20 04:14:15;;;;;;;12.73;7.30;;;;;;;;;;5095956;28;20484;-68
2022/03/20 04:16:41;;;;;;;13.98;7.40;;;;;;;;;;5077653;28;20119;-68
2022/03/20 04:19:08;;;;;;;13.23;7.18;;;;;;;;;;5095829;28;20027;-69
2022/03/20 04:21:34;;;;;;;11.48;6.22;;;;;;;;;;5095756;28;20077;-67
2022/03/20 04:24:01;;;;;;;16.95;8.35;;;;;;;;;;5095711;28;20114;-67
2022/03/20 04:26:27;;;;;;;12.93;7.80;;;;;;;;;;5095705;28;20096;-67
2022/03/20 04:28:53;;;;;;;13.52;7.07;;;;;;;;;;5077460;28;20024;-66
2022/03/20 04:31:20;;;;;;;13.00;7.40;;;;;;;;;;5095152;28;20034;-69
2022/03/20 04:33:48;;;;;;;16.67;8.32;;;;;;;;;;5095120;28;20496;-71
2022/03/20 04:36:14;;;;;;;16.40;7.72;;;;;;;;;;5077309;28;20078;-68
2022/03/20 04:38:41;;;;;;;13.15;7.50;;;;;;;;;;5077254;28;20028;-68
2022/03/20 04:41:07;;;;;;;14.27;7.85;;;;;;;;;;5077166;28;20464;-70
2022/03/20 04:43:33;;;;;;;11.35;7.40;;;;;;;;;;5077012;28;20058;-69
2022/03/20 04:46:00;;;;;;;14.80;7.70;;;;;;;;;;5095321;28;20028;-67
2022/03/20 04:59:26;;;;;;;19.80;10.23;;;;;;;;;;5094897;28;20038;-69
2022/03/20 05:01:52;;;;;;;16.98;8.70;;;;;;;;;;5094955;28;20095;-67
2022/03/20 05:04:18;;;;;;;21.60;10.68;;;;;;;;;;5095205;28;20431;-67
2022/03/20 05:06:44;;;;;;;20.92;11.57;;;;;;;;;;5077047;28;20471;-68
2022/03/20 05:14:40;;;;;;;31.25;12.57;;;;;;;;;;5094792;28;20072;-70
2022/03/20 05:17:07;;;;;;;20.25;10.27;;;;;;;;;;5076183;28;20021;-70
2022/03/20 05:19:34;;;;;;;19.88;9.85;;;;;;;;;;5094643;28;20036;-69
2022/03/20 05:22:01;;;;;;;18.67;9.80;;;;;;;;;;5094672;28;20074;-68
2022/03/20 05:24:27;;;;;;;19.48;9.18;;;;;;;;;;5076304;28;20028;-69
2022/03/20 05:26:53;;;;;;;19.85;9.27;;;;;;;;;;5094259;28;20549;-69
2022/03/20 05:29:20;;;;;;;18.20;8.35;;;;;;;;;;5076306;28;20028;-70
2022/03/20 05:31:46;;;;;;;21.23;10.37;;;;;;;;;;5094410;28;20024;-68
2022/03/20 05:34:13;;;;;;;20.48;9.15;;;;;;;;;;5094325;28;20469;-69
2022/03/20 05:36:39;;;;;;;14.88;8.60;;;;;;;;;;5076396;28;20419;-68
2022/03/20 05:39:05;;;;;;;16.13;7.82;;;;;;;;;;5094512;28;20024;-69
2022/03/20 05:41:47;;;;;;;21.60;10.65;;;;;;;;;;5093843;28;20032;-70
2022/03/20 05:44:13;;;;;;;;;;;;;;;;;;5091430;28;20407;-71
2022/03/20 05:46:40;;;;;;;24.90;10.60;;;;;;;;;;5094376;28;19999;-67
2022/03/20 05:49:06;;;;;;;20.15;8.93;;;;;;;;;;5075859;28;20020;-70
2022/03/20 05:51:34;;;;;;;13.40;7.28;;;;;;;;;;5093800;28;20031;-70
2022/03/20 05:54:01;;;;;;;15.20;8.27;;;;;;;;;;5094045;28;20102;-69
2022/03/20 05:59:12;;;;;;;15.10;7.25;;;;;;;;;;5093312;28;20039;-67
2022/03/20 06:01:39;;;;;;;12.30;6.88;;;;;;;;;;5093765;28;20032;-67
2022/03/20 06:04:06;;;;;;;12.73;7.03;;;;;;;;;;5075931;28;20051;-66
2022/03/20 06:06:33;;;;;;;11.95;7.00;;;;;;;;;;5092342;28;20024;-67
2022/03/20 06:08:59;;;;;;;14.15;6.88;;;;;;;;;;5075572;28;20031;-67
2022/03/20 06:11:26;;;;;;;12.48;6.07;;;;;;;;;;5093388;28;20034;-67
2022/03/20 06:13:53;;;;;;;10.35;6.43;;;;;;;;;;5093747;28;20023;-67
2022/03/20 06:16:22;;;;;;;9.90;5.72;;;;;;;;;;5093683;28;20032;-67
2022/03/20 06:18:49;;;;;;;15.93;8.10;;;;;;;;;;5093620;28;20020;-67
2022/03/20 06:21:15;;;;;;;14.05;7.28;;;;;;;;;;5075326;28;20472;-67
2022/03/20 06:23:42;;;;;;;14.88;7.32;;;;;;;;;;5093568;28;20107;-67
2022/03/20 06:26:08;;;;;;;15.20;6.10;;;;;;;;;;5093500;28;20024;-67
2022/03/20 06:28:35;;;;;;;11.48;5.75;;;;;;;;;;5093490;28;20368;-66
2022/03/20 06:31:02;;;;;;;13.57;6.95;;;;;;;;;;5075280;28;20035;-67
2022/03/20 06:33:28;;;;;;;11.18;5.93;;;;;;;;;;5093477;28;20353;-67
2022/03/20 06:35:54;;;;;;;10.50;5.60;;;;;;;;;;5075158;28;20476;-65
2022/03/20 06:38:21;;;;;;;13.30;5.25;;;;;;;;;;5093698;28;20109;-66
2022/03/20 06:40:47;;;;;;;9.13;5.53;;;;;;;;;;5093212;28;20459;-67
2022/03/20 06:43:16;;;;;;;12.77;5.90;;;;;;;;;;5093001;28;20431;-68
2022/03/20 06:45:42;;;;;;;17.13;6.40;;;;;;;;;;5075314;28;20387;-67
2022/03/20 06:48:09;;;;;;;16.92;8.30;;;;;;;;;;5093197;28;20119;-67
2022/03/20 06:50:35;;;;;;;22.00;7.60;;;;;;;;;;5092902;28;20028;-67
2022/03/20 06:53:04;;;;;;;13.43;6.57;;;;;;;;;;5074785;28;20024;-67
2022/03/20 06:55:31;;;;;;;12.80;5.65;;;;;;;;;;5093016;28;20094;-66
2022/03/20 06:57:58;;;;;;;18.13;5.75;;;;;;;;;;5092803;28;20460;-65
2022/03/20 07:00:26;;;;;;;8.93;5.10;;;;;;;;;;5074915;28;20043;-67
2022/03/20 07:02:55;;;;;;;9.27;5.10;;;;;;;;;;5074945;28;20035;-67
2022/03/20 07:05:22;;;;;;;11.25;4.97;;;;;;;;;;5074881;28;20094;-68
2022/03/20 07:07:52;;;;;;;13.90;5.20;;;;;;;;;;5093019;28;20028;-67
2022/03/20 07:10:22;;;;;;;11.52;5.03;;;;;;;;;;5093029;28;20051;-67
2022/03/20 07:12:50;;;;;;;8.55;5.07;;;;;;;;;;5092759;28;20032;-66
2022/03/20 07:15:17;;;;;;;10.30;5.57;;;;;;;;;;5074782;28;20020;-67
2022/03/20 07:17:44;;;;;;;8.65;5.50;;;;;;;;;;5093231;28;20039;-67
2022/03/20 07:20:11;;;;;;;8.75;5.05;;;;;;;;;;5092902;28;20110;-71
2022/03/20 07:22:37;;;;;;;12.55;5.13;;;;;;;;;;5092865;28;20032;-71
2022/03/20 07:30:37;;;;;;;12.68;5.30;;;;;;;;;;5092562;28;20035;-72
2022/03/20 07:33:03;;;;;;;9.30;4.57;;;;;;;;;;5092867;28;20031;-74
2022/03/20 07:35:30;;;;;;;11.32;5.25;;;;;;;;;;5074655;28;20024;-73
2022/03/20 07:37:56;;;;;;;9.23;5.30;;;;;;;;;;5092808;28;20186;-70
2022/03/20 07:40:23;;;;;;;7.43;4.63;;;;;;;;;;5072827;28;20103;-78
2022/03/20 07:42:49;;;;;;;11.82;6.80;;;;;;;;;;5073323;28;20419;-68
2022/03/20 07:45:15;;;;;;;13.25;7.13;;;;;;;;;;5092183;28;20024;-68
2022/03/20 07:47:41;;;;;;;18.13;5.63;;;;;;;;;;5092344;28;20110;-68
2022/03/20 07:50:08;;;;;;;29.92;11.13;;;;;;;;;;5092412;28;20145;-70
2022/03/20 07:52:35;;;;;;;17.90;8.30;;;;;;;;;;5074011;28;20032;-67
2022/03/20 07:55:02;;;;;;;24.65;8.85;;;;;;;;;;5092206;28;20035;-73
2022/03/20 07:57:31;;;;;;;25.65;11.02;;;;;;;;;;5092000;28;20024;-65
2022/03/20 07:59:58;;;;;;;22.77;8.80;;;;;;;;;;5074195;28;20035;-69
2022/03/20 08:02:24;;;;;;;20.17;9.02;;;;;;;;;;5091784;28;20028;-69
2022/03/20 08:04:54;;;;;;;30.35;12.80;;;;;;;;;;5092047;28;20165;-68
2022/03/20 08:07:20;;;;;;;22.63;11.15;;;;;;;;;;5095498;28;20093;-68
2022/03/20 08:09:46;;;;;;;36.17;16.27;;;;;;;;;;5077700;28;20460;-68
2022/03/20 08:12:13;;;;;;;26.75;11.85;;;;;;;;;;5095938;28;20540;-69
2022/03/20 08:14:39;;;;;;;29.85;9.27;;;;;;;;;;5095907;28;20028;-69
2022/03/20 08:17:08;;;;;;;16.92;7.03;;;;;;;;;;5095853;28;20028;-68
2022/03/20 08:19:35;;;;;;;15.77;7.28;;;;;;;;;;5095772;28;20376;-69
2022/03/20 08:22:05;;;;;;;18.92;7.03;;;;;;;;;;5077342;28;20039;-66
2022/03/20 08:24:31;;;;;;;10.68;6.28;;;;;;;;;;5077536;28;20032;-67
2022/03/20 08:26:57;;;;;;;13.13;6.68;;;;;;;;;;5095608;28;20024;-69
2022/03/20 08:29:24;;;;;;;14.65;6.40;;;;;;;;;;5077478;28;20113;-69
2022/03/20 08:31:54;;;;;;;20.30;9.45;;;;;;;;;;5077262;28;20036;-68
2022/03/20 08:34:20;;;;;;;28.95;11.63;;;;;;;;;;5095317;28;20402;-68
2022/03/20 08:36:47;;;;;;;16.00;5.88;;;;;;;;;;5077178;28;20077;-68
2022/03/20 08:39:13;;;;;;;24.45;8.20;;;;;;;;;;5095671;28;20080;-68
2022/03/20 08:41:39;;;;;;;17.17;7.82;;;;;;;;;;5095244;28;20032;-67
2022/03/20 08:44:08;;;;;;;18.55;8.93;;;;;;;;;;5094860;28;20044;-70
2022/03/20 08:46:34;;;;;;;15.52;6.90;;;;;;;;;;5095260;28;20050;-69
2022/03/20 08:49:07;;;;;;;14.55;6.22;;;;;;;;;;5095201;28;20036;-66
2022/03/20 08:51:34;;;;;;;14.48;7.25;;;;;;;;;;5095192;28;20082;-71
2022/03/20 08:54:01;;;;;;;14.15;5.53;;;;;;;;;;5076886;28;20032;-67
2022/03/20 08:56:28;;;;;;;14.15;7.65;;;;;;;;;;5094970;28;20020;-66
2022/03/20 08:58:54;;;;;;;15.10;7.70;;;;;;;;;;5095027;28;20064;-66
2022/03/20 09:01:20;;;;;;;16.83;5.55;;;;;;;;;;5094523;28;20048;-66
2022/03/20 09:03:49;;;;;;;18.13;7.90;;;;;;;;;;5094998;28;20047;-66
2022/03/20 09:06:19;;;;;;;20.42;7.10;;;;;;;;;;5094929;28;20035;-66
2022/03/20 09:08:45;;;;;;;17.92;8.68;;;;;;;;;;5076669;28;20028;-64
2022/03/20 09:11:12;;;;;;;14.55;8.35;;;;;;;;;;5076393;28;20032;-66
2022/03/20 09:13:38;;;;;;;16.35;7.93;;;;;;;;;;5094827;28;20016;-66
2022/03/20 09:19:07;;;;;;;22.52;9.10;;;;;;;;;;5094468;28;20039;-70
2022/03/20 09:21:37;;;;;;;19.83;9.00;;;;;;;;;;5094355;28;20028;-65
2022/03/20 09:24:04;;;;;;;18.85;7.85;;;;;;;;;;5076201;28;20025;-65
2022/03/20 09:26:30;;;;;;;30.27;10.85;;;;;;;;;;5093207;28;20075;-65
2022/03/20 09:28:57;;;;;;;20.63;10.40;;;;;;;;;;5094271;28;20032;-65
2022/03/20 09:31:24;;;;;;;19.08;9.20;;;;;;;;;;5094412;28;20080;-65
2022/03/20 09:33:51;;;;;;;14.98;8.68;;;;;;;;;;5093473;28;20528;-66
2022/03/20 09:36:17;;;;;;;29.75;8.55;;;;;;;;;;5094328;28;20099;-65
2022/03/20 09:38:43;;;;;;;19.00;9.00;;;;;;;;;;5094313;28;20027;-65
2022/03/20 09:41:11;;;;;;;23.30;10.75;;;;;;;;;;5093942;28;20035;-66
2022/03/20 09:43:38;;;;;;;19.52;8.23;;;;;;;;;;5094157;28;20050;-65
2022/03/20 09:46:05;;;;;;;18.10;7.82;;;;;;;;;;5094136;28;20024;-65
2022/03/20 09:48:31;;;;;;;16.50;7.88;;;;;;;;;;5094090;28;20032;-65
2022/03/20 09:51:01;;;;;;;13.70;7.07;;;;;;;;;;5093807;28;20560;-65
2022/03/20 09:53:27;;;;;;;18.15;7.60;;;;;;;;;;5094079;28;20030;-65
2022/03/20 09:55:57;;;;;;;17.67;8.55;;;;;;;;;;5093771;28;20055;-65
2022/03/20 09:58:27;;;;;;;18.08;8.68;;;;;;;;;;5093938;28;20028;-65
2022/03/20 10:00:54;;;;;;;15.35;6.72;;;;;;;;;;5075617;28;20381;-66
2022/03/20 10:03:21;;;;;;;11.50;6.90;;;;;;;;;;5093810;28;20031;-65
2022/03/20 10:06:06;;;;;;;12.65;5.70;;;;;;;;;;5092141;28;20020;-65
2022/03/20 10:08:32;;;;;;;14.40;6.90;;;;;;;;;;5073967;28;20032;-65
2022/03/20 10:11:18;;;;;;;12.35;5.60;;;;;;;;;;5093320;28;20364;-65
2022/03/20 10:14:02;;;;;;;10.15;5.25;;;;;;;;;;5075394;28;20016;-64
2022/03/20 10:16:29;;;;;;;15.68;6.80;;;;;;;;;;5093249;28;20114;-64
2022/03/20 10:18:55;;;;;;;13.20;6.35;;;;;;;;;;5093534;28;20774;-67
2022/03/20 10:21:21;;;;;;;12.68;6.28;;;;;;;;;;5093323;28;20472;-65
2022/03/20 10:23:47;;;;;;;10.88;6.85;;;;;;;;;;5075368;28;20480;-65
2022/03/20 10:26:16;;;;;;;12.90;7.13;;;;;;;;;;5075262;28;20020;-65
2022/03/20 10:28:45;;;;;;;16.63;6.80;;;14.70;46.70;;;;;;5092569;28;20480;-65
2022/03/20 10:31:18;;;;;;;10.43;5.63;;;15.00;45.90;;;;;;5074809;28;20040;-65
2022/03/20 10:33:58;;;;;;;12.05;6.25;;;15.30;44.80;;;;;;5075252;28;20028;-65
2022/03/20 10:36:24;;;;;;;13.52;6.18;;;15.50;45.20;;;;;;5093679;28;20020;-65
2022/03/20 10:38:50;;;;;;;13.93;5.45;;;16.50;62.80;;;;;;5074932;28;20102;-65
2022/03/20 10:41:26;;;;;;;10.45;5.93;;;17.10;42.60;;;;;;5075060;28;20032;-65
2022/03/20 10:43:54;;;;;;;12.18;6.20;;;17.40;42.20;;;;;;5059926;28;20084;-65
2022/03/20 10:46:23;;;;;;;14.52;7.05;;;17.90;42.90;;;;;;5052917;28;20033;-65
2022/03/20 10:48:52;;;;;;;10.95;6.47;;;18.50;42.10;;;;;;5052992;28;20021;-65
2022/03/20 10:51:41;;;;;;;15.80;6.90;;;19.20;41.00;;;;;;5052888;28;20033;-65
2022/03/20 10:54:07;;;;;;;12.77;6.70;;;18.90;41.90;;;;;;5051673;28;20037;-67
2022/03/20 10:56:35;;;;;;;9.23;6.10;;;19.10;39.90;;;;;;5052578;28;20532;-65
2022/03/20 10:59:12;;;;;;;12.10;6.70;;;19.20;39.30;;;;;;5052770;28;20086;-65
2022/03/20 11:01:40;;;;;;;11.93;6.45;;;20.30;39.40;;;;;;5052821;28;20069;-65
2022/03/20 11:04:07;;;;;;;14.35;6.20;;;21.10;36.60;;;;;;5052881;28;20018;-65
2022/03/20 11:06:34;;;;;;;12.75;5.80;;;21.50;34.70;;;;;;5052797;28;20033;-65
2022/03/20 11:09:04;;;;;;;18.58;6.22;;;22.10;34.60;;;;;;5052767;28;20033;-65
2022/03/20 11:11:34;;;;;;;8.93;4.93;;;22.40;35.10;;;;;;5052664;28;20033;-65
2022/03/20 11:14:02;;;;;;;10.23;6.30;;;22.40;34.70;;;;;;5052886;28;20022;-64
2022/03/20 11:16:31;;;;;;;42.55;17.95;;;23.70;34.80;;;;;;5052731;28;20037;-68
2022/03/20 11:18:59;;;;;;;37.28;15.35;;;24.20;53.50;;;;;;5049443;28;20023;-67
2022/03/20 11:21:28;;;;;;;14.63;7.93;;;25.10;53.30;;;;;;5050245;28;20044;-69
2022/03/20 11:23:54;;;;;;;10.93;4.88;;;25.80;39.00;;;;;;5051975;28;20029;-63
2022/03/20 11:26:21;;;;;;;10.63;5.13;;;26.10;34.10;;;;;;5050014;28;20355;-64
2022/03/20 11:28:53;;;;;;;8.85;5.15;;;26.20;32.80;;;;;;5050746;28;20017;-65
2022/03/20 11:31:20;;;;;;;8.75;5.50;;;26.50;31.80;;;;;;5052166;28;20036;-64
2022/03/20 11:33:49;;;;;;;6.82;5.43;;;27.20;32.00;;;;;;5052189;28;20103;-63
2022/03/20 11:36:14;;;;;;;7.03;4.88;;;26.70;31.00;;;;;;5052441;28;20492;-64
2022/03/20 11:38:41;;;;;;;7.35;5.00;;;26.40;30.20;;;;;;5052573;28;20033;-65
2022/03/20 11:41:14;;;;;;;6.97;4.78;;;27.20;31.00;;;;;;5053545;28;20029;-65
2022/03/20 11:43:47;;;;;;;6.03;4.55;;;27.60;30.00;;;;;;5075225;28;20393;-67
2022/03/20 11:46:22;;;;;;;5.85;4.10;;;27.70;29.90;;;;;;5096166;28;20388;-68
2022/03/20 11:49:12;;;;;;;5.97;4.35;;;28.00;28.50;;;;;;5095205;28;20028;-66
2022/03/20 11:51:55;;;;;;;5.88;4.32;;;28.50;29.30;;;;;;5077245;28;20027;-66
2022/03/20 11:54:28;;;;;;;7.13;4.53;;;28.70;29.50;;;;;;5095980;28;20028;-69
2022/03/20 11:56:54;;;;;;;8.52;5.40;;;28.90;29.40;;;;;;5096213;28;20099;-68
2022/03/20 11:59:46;;;;;;;6.00;4.88;;;28.70;29.10;;;;;;5096233;28;20056;-68
2022/03/20 12:02:17;;;;;;;14.40;6.15;;;28.60;29.20;;;;;;5085077;28;20519;-67
2022/03/20 12:05:18;;;;;;;18.57;6.77;;;28.80;34.40;;;;;;5096115;28;20027;-67
2022/03/20 12:08:06;;;;;;;20.63;6.47;;;28.20;39.70;;;;;;5096039;28;20255;-68
2022/03/20 12:10:59;;;;;;;15.13;7.35;;;28.70;37.90;;;;;;5096335;28;20020;-68
2022/03/20 12:13:39;;;;;;;17.67;7.20;;;28.90;36.50;;;;;;5077500;28;20020;-68
2022/03/20 12:16:04;;;;;;;15.00;6.90;;;29.40;38.10;;;;;;5095910;28;20024;-67
2022/03/20 12:19:06;;;;;;;13.15;7.50;;;29.50;36.70;;;;;;5095826;28;20032;-67
2022/03/20 12:21:57;;;;;;;12.70;6.10;;;30.00;31.80;;;;;;5077487;28;20035;-67
2022/03/20 12:24:39;;;;;;;16.95;8.07;;;;;;;;;;5095764;28;20064;-67
2022/03/20 12:27:22;;;;;;;18.80;7.50;;;30.30;53.00;;;;;;5077510;28;20024;-67
2022/03/20 12:29:51;;;;;;;7.28;6.00;;;31.10;44.60;;;;;;5095542;28;20023;-66
2022/03/20 12:32:18;;;;;;;15.20;6.57;;;30.00;31.30;;;;;;5077335;28;20392;-66
2022/03/20 12:34:57;;;;;;;12.35;6.72;;;29.80;33.70;;;;;;5095643;28;20423;-67
2022/03/20 12:37:29;;;;;;;16.52;7.68;;;30.40;35.30;;;;;;5077399;28;20384;-67
2022/03/20 12:40:04;;;;;;;21.35;8.40;;;30.50;31.60;;;;;;5095461;28;20024;-67
2022/03/20 12:42:31;;;;;;;38.25;10.73;;;30.40;35.40;;;;;;5076967;28;20119;-67
2022/03/20 12:44:58;;;;;;;23.40;8.93;;;30.30;36.10;;;;;;5077255;28;20451;-66
2022/03/20 12:47:26;;;;;;;12.18;5.47;;;31.00;34.00;;;;;;5095531;28;20360;-67
2022/03/20 12:50:10;;;;;;;5.90;3.90;;;31.30;29.20;;;;;;5095358;28;20360;-67
2022/03/20 12:52:38;;;;;;;5.70;4.53;;;31.20;30.70;;;;;;5093339;28;20020;-67
2022/03/20 12:55:08;;;;;;;9.93;5.45;;;30.70;28.40;;;;;;5075449;28;20035;-67
2022/03/20 12:57:37;;;;;;;8.38;4.88;;;31.30;28.40;;;;;;5094101;28;20032;-67
2022/03/20 13:00:12;;;;;;;7.97;5.53;;;30.10;28.40;;;;;;5094034;28;20488;-68
2022/03/20 13:03:11;;;;;;;7.00;5.10;;;29.20;28.40;;;;;;5094771;28;20032;-67
2022/03/20 13:05:45;;;;;;;15.32;6.88;;;29.00;28.70;;;;;;5088361;28;20067;-67
2022/03/20 13:08:19;;;;;;;8.15;5.57;;;29.80;35.40;;;;;;5094797;28;20059;-66
2022/03/20 13:10:45;;;;;;;9.13;4.97;;;29.30;27.60;;;;;;5094891;28;20065;-66
2022/03/20 13:13:13;;;;;;;6.47;5.20;;;28.80;28.30;;;;;;5094813;28;20028;-66
2022/03/20 13:15:40;;;;;;;7.30;5.47;;;29.10;29.10;;;;;;5076653;28;20460;-67
2022/03/20 13:18:07;;;;;;;9.50;5.85;;;29.70;28.50;;;;;;5094676;28;20060;-67
2022/03/20 13:20:36;;;;;;;9.20;6.30;;;30.30;28.20;;;;;;5094963;28;20051;-67
2022/03/20 13:23:11;;;;;;;20.58;14.10;;;30.20;29.00;;;;;;5094506;28;20075;-67
2022/03/20 13:25:40;;;;;;;12.27;7.32;;;29.40;28.90;;;;;;5094775;28;20081;-68
2022/03/20 13:28:06;;;;;;;7.05;5.45;;;28.70;29.10;;;;;;5094234;28;20411;-67
2022/03/20 13:30:38;;;;;;;8.48;5.57;;;28.10;29.20;;;;;;5094438;28;20093;-66
2022/03/20 13:33:05;;;;;;;7.60;4.97;;;28.70;28.90;;;;;;5094438;28;20028;-67
2022/03/20 13:35:31;;;;;;;7.60;5.70;;;29.20;28.30;;;;;;5076108;28;20163;-66
2022/03/20 13:38:02;;;;;;;8.73;5.75;;;30.30;27.90;;;;;;5094556;28;20110;-67
2022/03/20 13:40:33;;;;;;;7.10;5.35;;;29.50;28.50;;;;;;5076151;28;20032;-66
2022/03/20 13:43:00;;;;;;;6.97;5.15;;;29.40;28.40;;;;;;5068201;28;20079;-67
2022/03/20 13:45:37;;;;;;;7.53;5.28;;;29.70;28.00;;;;;;5053939;28;20024;-67
2022/03/20 13:48:05;;;;;;;7.07;5.20;;;29.20;28.20;;;;;;5053896;28;20024;-67
2022/03/20 13:50:31;;;;;;;8.75;5.38;;;29.60;28.20;;;;;;5053879;28;20503;-67
2022/03/20 13:52:57;;;;;;;9.15;6.45;;;29.60;29.00;;;;;;5052552;28;20037;-69
2022/03/20 13:55:34;;;;;;;8.77;5.60;;;29.30;28.80;;;;;;5051756;28;20109;-66
2022/03/20 13:58:01;;;;;;;7.25;5.75;;;29.00;28.40;;;;;;5053490;28;20082;-66
2022/03/20 14:00:39;;;;;;;8.70;5.80;;;28.80;28.30;;;;;;5053677;28;20033;-65
2022/03/20 14:03:10;;;;;;;12.52;6.25;;;30.30;29.50;;;;;;5052514;28;20060;-65
2022/03/20 14:05:36;;;;;;;;;;;30.40;28.90;;;;;;5053770;28;20025;-65
2022/03/20 14:08:13;;;;;;;10.93;6.22;;;28.50;28.40;;;;;;5052192;28;19912;-65
2022/03/20 14:10:48;;;;;;;12.13;6.45;;;28.60;28.90;;;;;;5053326;28;20063;-65
2022/03/20 14:13:19;;;;;;;9.07;6.45;;;29.70;28.90;;;;;;5053263;28;20021;-65
2022/03/20 14:16:05;;;;;;;10.75;6.78;;;28.10;28.70;;;;;;5051715;28;20035;-67
2022/03/20 14:18:55;;;;;;;10.65;6.85;;;27.10;29.10;;;;;;5053415;28;20029;-65
2022/03/20 14:21:31;;;;;;;12.25;7.05;;;26.00;29.70;;;;;;5047521;28;20049;-66
2022/03/20 14:24:12;;;;;;;18.35;8.25;;;25.60;30.40;;;;;;5053056;28;20029;-65
2022/03/20 14:26:46;;;;;;;15.90;9.52;;;25.40;30.60;;;;;;5046598;28;20377;-65
2022/03/20 14:41:18;;;;;;;9.53;6.43;;;21.90;30.60;;;;;;5052952;28;20035;-64
2022/03/20 14:43:43;;;;;;;11.02;6.70;;;19.80;33.70;;;;;;5073465;28;20333;-64
2022/03/20 14:46:10;;;;;;;9.88;6.20;;;18.90;35.70;;;;;;5093154;28;20032;-66